Time;durP1;ratioP1;P1;durP2;ratioP2;P2;SDS_P1;SDS_P2;PMS_P1;PMS_P2;Temp;Humidity;BMP_temperature;BMP_pressure;BME280_temperature;BME280_humidity;BME280_pressure;Samples;Min_cycle;Max_cycle;Signal;HPM_P1;HPM_P2
2022/05/19 00:01:44;;;;;;;6.33;5.73;;;21.30;99.90;;;;;;5107339;27;20248;-63
2022/05/19 00:04:14;;;;;;;8.90;5.93;;;21.30;99.90;;;;;;5106827;27;20786;-65
2022/05/19 00:06:42;;;;;;;5.30;4.90;;;21.30;99.90;;;;;;5110421;27;20645;-64
2022/05/19 00:09:10;;;;;;;7.67;5.53;;;21.20;99.90;;;;;;5108405;27;20240;-63
2022/05/19 00:11:39;;;;;;;6.03;5.20;;;21.20;99.90;;;;;;5106423;27;20592;-63
2022/05/19 00:14:07;;;;;;;6.03;5.40;;;21.20;99.90;;;;;;5107926;27;20244;-62
2022/05/19 00:16:35;;;;;;;7.80;5.07;;;21.10;99.90;;;;;;5107607;27;20708;-64
2022/05/19 00:19:04;;;;;;;6.00;5.40;;;21.10;99.90;;;;;;5106888;27;20247;-64
2022/05/19 00:21:34;;;;;;;6.13;5.43;;;21.10;99.90;;;;;;5107217;27;20260;-63
2022/05/19 00:24:02;;;;;;;6.37;5.10;;;21.10;99.90;;;;;;5108422;27;20245;-63
2022/05/19 00:26:30;;;;;;;6.17;5.20;;;21.00;99.90;;;;;;5106515;27;20245;-64
2022/05/19 00:28:58;;;;;;;7.63;5.47;;;21.00;99.90;;;;;;5106383;27;20228;-62
2022/05/19 00:31:27;;;;;;;5.93;5.33;;;21.00;99.90;;;;;;5106654;27;20284;-63
2022/05/19 00:33:55;;;;;;;5.57;5.07;;;21.00;99.90;;;;;;5104692;27;20245;-65
2022/05/19 00:36:23;;;;;;;6.20;5.20;;;21.00;99.90;;;;;;5109529;27;20331;-63
2022/05/19 00:38:52;;;;;;;6.63;5.53;;;20.90;99.90;;;;;;5106936;27;21213;-63
2022/05/19 00:41:21;;;;;;;6.20;5.60;;;20.90;99.90;;;;;;5107526;27;20244;-63
2022/05/19 00:43:58;;;;;;;5.73;5.17;;;20.90;99.90;;;;;;5107331;27;20239;-63
2022/05/19 00:46:31;;;;;;;5.40;4.90;;;20.90;99.90;;;;;;5106375;27;20271;-64
2022/05/19 00:49:05;;;;;;;6.47;5.23;;;20.90;99.90;;;;;;5107875;27;20348;-64
2022/05/19 00:51:41;;;;;;;6.10;5.50;;;20.90;99.90;;;;;;5106481;27;20237;-65
2022/05/19 00:54:16;;;;;;;6.40;5.77;;;20.80;99.90;;;;;;5106580;27;20731;-63
2022/05/19 00:56:50;;;;;;;7.63;6.53;;;20.70;99.90;;;;;;5109684;27;20239;-64
2022/05/19 00:59:25;;;;;;;6.47;5.70;;;20.70;99.90;;;;;;5106510;28;20276;-63
2022/05/19 01:01:55;;;;;;;6.33;5.73;;;20.60;99.90;;;;;;5106303;27;20591;-63
2022/05/19 01:04:28;;;;;;;6.63;5.93;;;20.60;99.90;;;;;;5107512;27;20672;-64
2022/05/19 01:06:59;;;;;;;6.60;5.50;;;20.60;99.90;;;;;;5106992;27;20657;-64
2022/05/19 01:09:34;;;;;;;6.07;5.50;;;20.60;99.90;;;;;;5106711;27;20236;-63
2022/05/19 01:12:03;;;;;;;6.47;5.70;;;20.60;99.90;;;;;;5107813;27;20373;-65
2022/05/19 01:14:32;;;;;;;7.00;6.30;;;20.50;99.90;;;;;;5092957;28;20616;-63
2022/05/19 01:17:01;;;;;;;7.10;6.17;;;20.50;99.90;;;;;;5106326;27;20648;-63
2022/05/19 01:19:35;;;;;;;6.67;5.60;;;20.50;99.90;;;;;;5105682;27;20229;-64
2022/05/19 01:22:11;;;;;;;6.30;5.30;;;20.40;99.90;;;;;;5107481;28;20241;-64
2022/05/19 01:24:48;;;;;;;5.87;5.27;;;20.50;99.90;;;;;;5104887;28;20310;-63
2022/05/19 01:27:18;;;;;;;5.93;5.33;;;20.40;99.90;;;;;;5109744;27;20623;-63
2022/05/19 01:29:46;;;;;;;6.87;5.70;;;20.40;99.90;;;;;;5109883;27;20274;-63
2022/05/19 01:32:24;;;;;;;5.87;5.37;;;20.40;99.90;;;;;;5110797;27;20248;-65
2022/05/19 01:34:53;;;;;;;7.47;5.90;;;20.40;99.90;;;;;;5112351;27;20248;-64
2022/05/19 01:37:22;;;;;;;6.17;5.57;;;20.40;99.90;;;;;;5110740;27;20232;-62
2022/05/19 01:40:06;;;;;;;6.60;6.00;;;20.30;99.90;;;;;;5098651;27;20328;-63
2022/05/19 01:42:48;;;;;;;7.70;6.17;;;20.30;99.90;;;;;;5108167;27;20241;-64
2022/05/19 01:45:37;;;;;;;6.27;5.57;;;20.30;99.90;;;;;;5110464;27;20644;-63
2022/05/19 01:48:13;;;;;;;6.87;6.27;;;20.20;99.90;;;;;;5108538;27;20324;-63
2022/05/19 01:50:50;;;;;;;8.07;5.80;;;20.10;99.90;;;;;;5111615;27;20644;-63
2022/05/19 01:53:26;;;;;;;7.37;6.07;;;20.10;99.90;;;;;;5110813;27;20581;-63
2022/05/19 01:56:01;;;;;;;6.50;5.90;;;20.10;99.90;;;;;;5108978;27;20240;-65
2022/05/19 01:58:36;;;;;;;6.17;5.67;;;20.00;99.90;;;;;;5112248;27;20635;-63
2022/05/19 02:01:06;;;;;;;6.33;5.77;;;20.00;99.90;;;;;;5108886;27;20603;-62
2022/05/19 02:03:41;;;;;;;6.50;5.60;;;20.00;99.90;;;;;;5109919;27;20703;-63
2022/05/19 02:06:14;;;;;;;6.80;6.07;;;19.90;99.90;;;;;;5109298;27;20750;-63
2022/05/19 02:08:48;;;;;;;7.13;6.50;;;19.90;99.90;;;;;;5108594;27;20252;-63
2022/05/19 02:11:24;;;;;;;6.50;5.90;;;19.80;99.90;;;;;;5109088;27;20229;-64
2022/05/19 02:13:58;;;;;;;7.20;6.50;;;19.80;99.90;;;;;;5109773;27;20248;-64
2022/05/19 02:16:27;;;;;;;6.70;6.10;;;19.70;99.90;;;;;;5109123;27;20859;-63
2022/05/19 02:18:56;;;;;;;7.90;6.70;;;19.70;99.90;;;;;;5110862;27;20248;-63
2022/05/19 02:21:25;;;;;;;7.17;6.47;;;19.70;99.90;;;;;;5110010;27;20248;-62
2022/05/19 02:23:57;;;;;;;9.33;7.03;;;19.70;99.90;;;;;;5109919;27;21043;-64
2022/05/19 02:26:26;;;;;;;7.23;6.63;;;19.60;99.90;;;;;;5112496;27;20245;-64
2022/05/19 02:28:59;;;;;;;7.87;7.17;;;19.50;99.90;;;;;;5110845;27;20330;-64
2022/05/19 02:31:28;;;;;;;7.43;6.73;;;19.40;99.90;;;;;;5108224;27;20247;-63
2022/05/19 02:33:56;;;;;;;6.50;5.90;;;19.40;99.90;;;;;;5108652;27;20275;-64
2022/05/19 02:36:25;;;;;;;6.60;6.00;;;19.50;99.90;;;;;;5109626;27;20295;-64
2022/05/19 02:38:53;;;;;;;7.23;6.57;;;19.50;99.90;;;;;;5107801;27;20241;-63
2022/05/19 02:41:22;;;;;;;7.17;6.20;;;19.50;99.90;;;;;;5110458;27;20566;-63
2022/05/19 02:43:50;;;;;;;7.90;7.17;;;19.40;99.90;;;;;;5108111;27;20339;-65
2022/05/19 02:46:20;;;;;;;6.80;6.20;;;19.40;99.90;;;;;;5111104;27;20593;-64
2022/05/19 02:48:48;;;;;;;6.40;5.80;;;19.40;99.90;;;;;;5110288;27;20672;-63
2022/05/19 02:51:16;;;;;;;7.27;6.67;;;19.40;99.90;;;;;;5108727;27;20236;-64
2022/05/19 02:53:44;;;;;;;7.33;6.30;;;19.40;99.90;;;;;;5107111;27;20264;-63
2022/05/19 02:56:12;;;;;;;7.07;6.47;;;19.40;99.90;;;;;;5110060;27;20269;-64
2022/05/19 02:58:40;;;;;;;7.80;7.00;;;19.40;99.90;;;;;;5107922;27;20272;-63
2022/05/19 03:01:09;;;;;;;7.57;6.43;;;19.40;99.90;;;;;;5107617;27;20247;-63
2022/05/19 03:03:38;;;;;;;7.00;6.30;;;19.30;99.90;;;;;;5108418;27;20241;-63
2022/05/19 03:06:06;;;;;;;7.63;6.03;;;19.20;99.90;;;;;;5110003;27;20249;-63
2022/05/19 03:08:35;;;;;;;6.87;6.27;;;19.20;99.90;;;;;;5107373;27;20251;-64
2022/05/19 03:11:03;;;;;;;6.83;6.10;;;19.20;99.90;;;;;;5110835;27;20244;-64
2022/05/19 03:13:31;;;;;;;6.97;6.33;;;19.20;99.90;;;;;;5107012;27;20304;-64
2022/05/19 03:15:59;;;;;;;8.47;6.57;;;19.20;99.90;;;;;;5108514;27;20232;-63
2022/05/19 03:18:27;;;;;;;7.03;6.33;;;19.10;99.90;;;;;;5111556;27;20240;-64
2022/05/19 03:20:57;;;;;;;7.40;6.70;;;19.10;99.90;;;;;;5109145;27;20241;-64
2022/05/19 03:23:25;;;;;;;6.87;6.13;;;19.20;99.90;;;;;;5109185;27;20361;-63
2022/05/19 03:25:54;;;;;;;6.83;6.20;;;19.10;99.90;;;;;;5109718;27;20637;-64
2022/05/19 03:28:22;;;;;;;7.37;6.43;;;19.20;99.90;;;;;;5111177;27;20239;-63
2022/05/19 03:30:50;;;;;;;7.60;5.70;;;19.10;99.90;;;;;;5108453;27;20310;-63
2022/05/19 03:33:19;;;;;;;8.43;6.10;;;19.10;99.90;;;;;;5108330;27;20247;-63
2022/05/19 03:35:58;;;;;;;7.30;6.60;;;19.10;99.90;;;;;;5109405;27;20795;-63
2022/05/19 03:38:27;;;;;;;7.83;7.13;;;19.20;99.90;;;;;;5109875;27;20244;-63
2022/05/19 03:40:55;;;;;;;9.37;7.67;;;19.00;99.90;;;;;;5110136;27;20796;-65
2022/05/19 03:43:23;;;;;;;9.27;7.53;;;18.90;99.90;;;;;;5109719;27;20287;-63
2022/05/19 03:45:55;;;;;;;8.57;7.83;;;18.80;99.90;;;;;;5109467;27;20240;-63
2022/05/19 03:48:24;;;;;;;7.43;6.83;;;18.60;99.90;;;;;;5113626;27;20359;-64
2022/05/19 03:50:52;;;;;;;7.33;6.73;;;18.60;99.90;;;;;;5113473;27;20244;-62
2022/05/19 03:53:21;;;;;;;7.37;6.67;;;18.60;99.90;;;;;;5113191;27;20733;-63
2022/05/19 03:55:50;;;;;;;7.33;6.63;;;18.70;99.90;;;;;;5111986;27;20304;-63
2022/05/19 03:58:18;;;;;;;7.60;6.30;;;18.70;99.90;;;;;;5112666;27;20237;-63
2022/05/19 04:00:47;;;;;;;7.60;6.90;;;18.80;99.90;;;;;;5112019;27;20237;-64
2022/05/19 04:03:15;;;;;;;6.83;6.20;;;18.70;99.90;;;;;;5110229;27;20244;-62
2022/05/19 04:05:44;;;;;;;6.57;5.97;;;18.70;99.90;;;;;;5107413;27;20235;-64
2022/05/19 04:08:12;;;;;;;10.17;6.83;;;18.80;99.90;;;;;;5108080;27;20305;-63
2022/05/19 04:10:44;;;;;;;6.97;6.37;;;18.80;99.90;;;;;;5109350;27;20237;-63
2022/05/19 04:13:13;;;;;;;7.37;6.73;;;18.80;99.90;;;;;;5106092;27;20247;-64
2022/05/19 04:15:41;;;;;;;8.53;7.30;;;18.90;99.90;;;;;;5110195;27;20248;-64
2022/05/19 04:18:10;;;;;;;8.10;7.30;;;19.00;99.90;;;;;;5110869;27;20278;-63
2022/05/19 04:20:38;;;;;;;9.00;8.10;;;18.90;99.90;;;;;;5108618;27;20258;-63
2022/05/19 04:23:06;;;;;;;9.03;8.23;;;18.90;99.90;;;;;;5107201;27;20241;-64
2022/05/19 04:25:35;;;;;;;10.00;9.10;;;18.80;99.90;;;;;;5107025;27;20238;-63
2022/05/19 04:28:06;;;;;;;9.13;8.00;;;18.70;99.90;;;;;;5107209;27;20265;-63
2022/05/19 04:30:34;;;;;;;8.10;7.37;;;18.80;99.90;;;;;;5108352;27;20248;-64
2022/05/19 04:33:04;;;;;;;8.40;7.50;;;18.90;99.90;;;;;;5106054;27;20244;-65
2022/05/19 04:35:32;;;;;;;7.93;7.13;;;19.00;99.90;;;;;;5110822;27;20239;-64
2022/05/19 04:38:06;;;;;;;8.30;7.60;;;19.10;99.90;;;;;;5107527;27;20249;-63
2022/05/19 04:40:37;;;;;;;8.43;7.70;;;19.20;99.90;;;;;;5108090;27;20248;-63
2022/05/19 04:43:13;;;;;;;8.10;7.27;;;19.20;99.90;;;;;;5106051;27;20247;-64
2022/05/19 04:45:41;;;;;;;7.87;7.10;;;19.30;99.90;;;;;;5108472;27;20248;-64
2022/05/19 04:48:10;;;;;;;10.80;8.50;;;19.40;99.90;;;;;;5111568;27;20239;-63
2022/05/19 04:50:38;;;;;;;8.90;8.00;;;19.60;99.90;;;;;;5110849;27;20702;-63
2022/05/19 04:53:06;;;;;;;8.57;7.70;;;19.60;99.90;;;;;;5109252;27;20644;-65
2022/05/19 04:55:35;;;;;;;8.30;7.50;;;19.70;99.90;;;;;;5110208;27;20241;-63
2022/05/19 04:58:04;;;;;;;8.57;7.77;;;19.70;99.90;;;;;;5105855;27;20228;-64
2022/05/19 05:00:34;;;;;;;9.23;8.43;;;19.70;99.90;;;;;;5105238;27;20246;-63
2022/05/19 05:03:04;;;;;;;9.53;8.33;;;19.80;99.90;;;;;;5109974;27;20249;-62
2022/05/19 05:05:33;;;;;;;9.10;8.30;;;19.80;99.90;;;;;;5108803;27;20687;-63
2022/05/19 05:08:01;;;;;;;9.70;8.67;;;19.70;99.90;;;;;;5107929;27;20248;-63
2022/05/19 05:10:29;;;;;;;9.23;7.97;;;19.80;99.90;;;;;;5106730;27;20244;-64
2022/05/19 05:12:57;;;;;;;9.97;8.40;;;19.80;99.90;;;;;;5107098;27;20248;-63
2022/05/19 05:15:25;;;;;;;9.23;8.37;;;19.90;99.90;;;;;;5109686;27;20243;-64
2022/05/19 05:17:56;;;;;;;9.70;8.80;;;20.00;99.90;;;;;;5114365;27;20727;-63
2022/05/19 05:20:24;;;;;;;9.67;8.87;;;20.00;99.90;;;;;;5110789;27;21024;-65
2022/05/19 05:22:53;;;;;;;9.20;8.37;;;20.00;99.90;;;;;;5106374;27;20244;-64
2022/05/19 05:25:21;;;;;;;10.37;9.40;;;20.10;99.90;;;;;;5108752;28;20243;-64
2022/05/19 05:27:49;;;;;;;11.17;9.50;;;20.20;99.90;;;;;;5105889;28;20232;-63
2022/05/19 05:30:17;;;;;;;12.17;9.43;;;20.30;99.90;;;;;;5108507;28;20241;-63
2022/05/19 05:32:45;;;;;;;10.80;8.40;;;20.50;99.90;;;;;;5107420;28;20229;-64
2022/05/19 05:35:15;;;;;;;9.40;8.33;;;20.60;99.90;;;;;;5108182;28;20245;-64
2022/05/19 05:37:43;;;;;;;9.07;8.17;;;20.70;99.90;;;;;;5107939;28;20289;-63
2022/05/19 05:40:12;;;;;;;8.77;7.87;;;20.70;99.90;;;;;;5109329;28;20639;-63
2022/05/19 05:42:41;;;;;;;7.93;7.17;;;20.90;99.90;;;;;;5105674;28;20323;-63
2022/05/19 05:45:11;;;;;;;8.33;7.07;;;21.10;99.90;;;;;;5106062;28;20238;-62
2022/05/19 05:47:39;;;;;;;7.00;6.30;;;21.30;99.90;;;;;;5108957;28;20260;-63
2022/05/19 05:50:29;;;;;;;7.17;6.40;;;21.50;99.90;;;;;;5107836;28;20238;-63
2022/05/19 05:52:57;;;;;;;7.87;7.07;;;21.60;99.90;;;;;;5107681;28;20349;-64
2022/05/19 05:55:28;;;;;;;7.73;7.03;;;21.60;99.90;;;;;;5107150;28;20318;-63
2022/05/19 05:57:56;;;;;;;7.40;6.70;;;21.80;99.90;;;;;;5106540;28;20234;-63
2022/05/19 06:00:27;;;;;;;7.00;6.37;;;21.90;99.90;;;;;;5109078;28;20247;-64
2022/05/19 06:02:55;;;;;;;8.53;7.50;;;22.10;99.90;;;;;;5106193;28;20336;-63
2022/05/19 06:05:24;;;;;;;7.13;6.40;;;22.10;99.90;;;;;;5105427;28;20238;-64
2022/05/19 06:07:53;;;;;;;6.67;6.07;;;22.10;99.90;;;;;;5105507;28;20233;-63
2022/05/19 06:10:22;;;;;;;7.97;6.57;;;22.20;99.90;;;;;;5105063;28;20332;-62
2022/05/19 06:12:50;;;;;;;7.63;5.90;;;22.40;99.90;;;;;;5104926;28;20288;-64
2022/05/19 06:15:18;;;;;;;7.93;6.17;;;22.60;99.90;;;;;;5113352;27;20670;-62
2022/05/19 06:17:46;;;;;;;7.77;6.17;;;22.60;99.90;;;;;;5114241;27;20236;-64
2022/05/19 06:20:17;;;;;;;6.47;5.70;;;22.80;99.90;;;;;;5109931;27;20233;-63
2022/05/19 06:22:46;;;;;;;7.73;6.13;;;22.90;99.90;;;;;;5107017;27;20360;-64
2022/05/19 06:25:19;;;;;;;8.67;6.03;;;23.10;99.90;;;;;;5111721;27;20245;-63
2022/05/19 06:27:49;;;;;;;6.87;5.50;;;23.60;99.90;;;;;;5110156;27;20860;-64
2022/05/19 06:30:20;;;;;;;6.57;4.83;;;23.80;99.90;;;;;;5109364;27;20254;-63
2022/05/19 06:32:48;;;;;;;6.63;5.40;;;24.30;99.90;;;;;;5108961;27;20233;-64
2022/05/19 06:35:19;;;;;;;6.20;4.70;;;24.50;99.90;;;;;;5108842;27;20248;-65
2022/05/19 06:37:47;;;;;;;8.83;4.67;;;24.80;99.90;;;;;;5110067;27;20255;-62
2022/05/19 06:40:20;;;;;;;5.53;4.70;;;24.80;99.90;;;;;;5107625;27;20690;-64
2022/05/19 06:42:48;;;;;;;6.97;5.03;;;24.90;99.90;;;;;;5111879;27;20329;-62
2022/05/19 06:45:21;;;;;;;6.53;4.80;;;24.90;99.90;;;;;;5115130;27;20761;-63
2022/05/19 06:47:49;;;;;;;5.37;4.87;;;24.90;99.90;;;;;;5112046;27;20268;-63
2022/05/19 06:50:18;;;;;;;5.50;4.50;;;25.00;99.90;;;;;;5113013;27;20230;-64
2022/05/19 06:52:49;;;;;;;6.23;4.37;;;25.00;99.90;;;;;;5113537;27;20238;-64
2022/05/19 06:55:21;;;;;;;6.50;4.53;;;24.90;99.90;;;;;;5112326;27;20243;-64
2022/05/19 06:57:49;;;;;;;6.00;4.53;;;25.00;99.90;;;;;;5112733;27;20239;-64
2022/05/19 07:00:21;;;;;;;7.33;4.40;;;25.40;99.90;;;;;;5113782;27;21070;-63
2022/05/19 07:02:51;;;;;;;5.13;4.30;;;25.60;99.90;;;;;;5110528;27;20723;-64
2022/05/19 07:05:21;;;;;;;4.43;4.00;;;25.70;99.90;;;;;;5111288;27;20359;-63
2022/05/19 07:07:50;;;;;;;4.67;4.23;;;25.90;99.90;;;;;;5112353;27;20234;-63
2022/05/19 07:10:22;;;;;;;5.40;4.10;;;25.90;99.90;;;;;;5114194;27;20262;-63
2022/05/19 07:12:52;;;;;;;4.60;4.20;;;26.20;99.90;;;;;;5110932;27;20637;-62
2022/05/19 07:15:21;;;;;;;4.90;3.93;;;26.10;99.90;;;;;;5112325;27;20871;-64
2022/05/19 07:17:49;;;;;;;6.13;4.13;;;26.50;99.90;;;;;;5114400;27;20242;-64
2022/05/19 07:23:04;;;;;;;5.00;4.23;;;26.60;99.90;;;;;;5110887;27;20640;-63
2022/05/19 07:25:36;;;;;;;6.13;4.07;;;26.50;99.90;;;;;;5111318;27;20812;-64
2022/05/19 07:28:04;;;;;;;8.07;4.20;;;26.70;99.90;;;;;;5113865;27;20258;-64
2022/05/19 07:30:32;;;;;;;6.20;3.60;;;26.80;99.90;;;;;;5112738;27;20234;-63
2022/05/19 07:33:01;;;;;;;4.23;3.60;;;27.20;99.90;;;;;;5111308;27;20726;-64
2022/05/19 07:35:30;;;;;;;3.93;3.50;;;27.50;99.90;;;;;;5108424;27;20244;-62
2022/05/19 07:37:58;;;;;;;4.63;3.70;;;27.00;99.90;;;;;;5104463;27;20339;-63
2022/05/19 07:40:27;;;;;;;4.63;3.73;;;26.50;99.90;;;;;;5107013;27;20237;-63
2022/05/19 07:43:35;;;;;;;7.33;4.13;;;26.60;99.90;;;;;;5104084;27;20241;-63
2022/05/19 07:45:46;;;;;;;5.23;3.80;;;26.90;99.90;;;;;;5105832;27;20282;-63
2022/05/19 07:48:14;;;;;;;5.90;3.80;;;26.60;99.90;;;;;;5107091;27;20239;-63
2022/05/19 07:50:42;;;;;;;5.80;3.73;;;26.80;99.90;;;;;;5104389;27;20266;-64
2022/05/19 07:53:10;;;;;;;4.33;3.63;;;27.30;99.90;;;;;;5104767;27;20251;-62
2022/05/19 07:55:39;;;;;;;5.83;3.70;;;27.60;99.90;;;;;;5106778;27;20917;-63
2022/05/19 07:58:08;;;;;;;5.27;3.70;;;28.00;99.90;;;;;;5106222;27;20237;-63
2022/05/19 08:00:36;;;;;;;5.80;3.47;;;28.30;99.90;;;;;;5104837;27;20576;-64
2022/05/19 08:03:05;;;;;;;5.63;3.40;;;28.60;99.90;;;;;;5104369;27;21271;-63
2022/05/19 08:05:34;;;;;;;5.77;3.50;;;29.10;99.90;;;;;;5104148;27;20238;-64
2022/05/19 08:08:02;;;;;;;5.00;3.60;;;29.50;99.90;;;;;;5105611;27;20248;-64
2022/05/19 08:10:30;;;;;;;7.00;3.90;;;29.70;99.90;;;;;;5106946;27;20260;-63
2022/05/19 08:15:48;;;;;;;4.03;3.40;;;28.90;99.90;;;;;;5110390;27;20287;-64
2022/05/19 08:18:18;;;;;;;4.30;3.10;;;28.90;99.90;;;;;;5111064;27;20244;-63
2022/05/19 08:20:49;;;;;;;4.50;3.23;;;29.00;99.90;;;;;;5111416;27;20240;-64
2022/05/19 08:23:22;;;;;;;4.97;3.33;;;29.20;99.90;;;;;;5109714;27;20294;-63
2022/05/19 08:25:50;;;;;;;4.13;2.90;;;29.60;99.90;;;;;;5113060;27;20332;-62
2022/05/19 08:28:19;;;;;;;3.40;3.00;;;29.80;99.90;;;;;;5107431;27;20244;-64
2022/05/19 08:30:51;;;;;;;4.90;3.00;;;29.80;99.90;;;;;;5107513;27;20252;-62
2022/05/19 08:33:20;;;;;;;4.60;2.87;;;29.40;99.90;;;;;;5106123;27;20233;-63
2022/05/19 08:35:49;;;;;;;3.20;2.80;;;29.40;99.90;;;;;;5108234;27;20267;-63
2022/05/19 08:38:17;;;;;;;4.33;3.20;;;29.40;99.90;;;;;;5107738;27;20790;-63
2022/05/19 08:40:48;;;;;;;4.47;2.80;;;29.60;99.90;;;;;;5109931;27;20240;-64
2022/05/19 08:43:20;;;;;;;3.63;2.50;;;29.60;99.90;;;;;;5107920;27;20728;-62
2022/05/19 08:45:55;;;;;;;4.47;2.90;;;29.90;99.90;;;;;;5110579;27;20233;-63
2022/05/19 08:48:26;;;;;;;3.73;2.80;;;30.20;99.90;;;;;;5105907;27;20309;-64
2022/05/19 08:50:56;;;;;;;3.53;2.83;;;30.40;99.90;;;;;;5107732;27;20643;-64
2022/05/19 08:53:27;;;;;;;5.30;3.23;;;30.60;99.90;;;;;;5105674;27;20229;-63
2022/05/19 08:56:01;;;;;;;2.97;2.57;;;30.50;99.90;;;;;;5107838;28;20239;-63
2022/05/19 08:58:42;;;;;;;5.23;2.97;;;30.40;99.90;;;;;;5106912;27;20300;-63
2022/05/19 09:01:19;;;;;;;5.70;3.13;;;30.20;99.90;;;;;;5106927;27;20788;-62
2022/05/19 09:03:58;;;;;;;3.70;2.83;;;30.00;99.90;;;;;;5109396;27;20238;-64
2022/05/19 09:09:52;;;;;;;3.53;2.90;;;30.10;99.90;;;;;;5108554;27;20232;-62
2022/05/19 09:12:23;;;;;;;5.10;3.20;;;29.80;99.90;;;;;;5107624;27;20250;-64
2022/05/19 09:14:53;;;;;;;6.63;3.20;;;29.70;99.90;;;;;;5105713;27;20265;-64
2022/05/19 09:17:32;;;;;;;4.13;3.27;;;29.40;99.90;;;;;;5106196;27;20246;-63
2022/05/19 09:20:03;;;;;;;3.93;3.00;;;29.20;99.90;;;;;;5110312;27;20245;-63
2022/05/19 09:22:33;;;;;;;4.80;3.20;;;29.20;99.90;;;;;;5106514;27;20261;-63
2022/05/19 09:25:05;;;;;;;5.67;3.37;;;29.20;99.90;;;;;;5109902;27;20265;-63
2022/05/19 09:27:37;;;;;;;5.80;3.20;;;29.10;99.90;;;;;;5109601;28;20657;-65
2022/05/19 09:30:08;;;;;;;4.70;3.07;;;29.20;99.90;;;;;;5108517;28;20265;-62
2022/05/19 09:32:45;;;;;;;4.63;3.00;;;29.30;99.90;;;;;;5108243;28;20241;-62
2022/05/19 09:35:19;;;;;;;5.17;3.17;;;29.20;99.90;;;;;;5106141;28;20321;-63
2022/05/19 09:37:49;;;;;;;5.77;3.23;;;29.60;99.90;;;;;;5106209;28;20236;-63
2022/05/19 09:40:24;;;;;;;4.53;3.43;;;30.00;99.90;;;;;;5105291;28;20229;-63
2022/05/19 09:43:17;;;;;;;6.23;3.30;;;30.30;99.90;;;;;;5105057;28;20226;-62
2022/05/19 09:45:53;;;;;;;4.30;3.47;;;30.30;99.90;;;;;;5110161;28;20249;-63
2022/05/19 09:48:27;;;;;;;4.57;3.60;;;29.90;99.90;;;;;;5112927;27;20257;-64
2022/05/19 09:51:03;;;;;;;4.93;3.40;;;29.90;99.90;;;;;;5107858;27;20261;-64
2022/05/19 09:53:38;;;;;;;6.07;3.30;;;29.80;99.90;;;;;;5106888;27;21052;-64
2022/05/19 09:56:11;;;;;;;5.87;3.23;;;29.90;99.90;;;;;;5113642;27;20245;-62
2022/05/19 09:58:44;;;;;;;4.47;3.63;;;30.10;99.90;;;;;;5110733;27;20313;-63
2022/05/19 10:01:21;;;;;;;3.90;3.27;;;30.00;99.90;;;;;;5109443;27;20238;-62
2022/05/19 10:03:58;;;;;;;4.33;3.57;;;29.90;99.90;;;;;;5104840;27;20276;-64
2022/05/19 10:06:35;;;;;;;4.73;3.43;;;29.70;99.90;;;;;;5108861;27;20316;-62
2022/05/19 10:09:09;;;;;;;5.23;3.47;;;29.80;99.90;;;;;;5112961;27;20243;-62
2022/05/19 10:11:48;;;;;;;3.93;3.13;;;29.80;99.90;;;;;;5110682;27;20323;-63
2022/05/19 10:14:18;;;;;;;4.53;3.07;;;30.10;99.90;;;;;;5112107;27;20238;-63
2022/05/19 10:16:59;;;;;;;5.23;3.33;;;30.50;99.90;;;;;;5111529;27;20706;-62
2022/05/19 10:19:38;;;;;;;6.13;3.53;;;30.90;99.90;;;;;;5114295;27;20233;-63
2022/05/19 10:22:31;;;;;;;5.17;3.40;;;30.80;99.90;;;;;;5113655;27;20241;-64
2022/05/19 10:25:23;;;;;;;8.00;4.03;;;30.60;99.90;;;;;;5109116;27;20244;-63
2022/05/19 10:31:13;;;;;;;3.70;3.33;;;30.80;99.90;;;;;;5106800;27;20255;-63
2022/05/19 10:34:04;;;;;;;4.17;3.77;;;30.80;99.90;;;;;;5109203;27;20591;-63
2022/05/19 10:36:42;;;;;;;6.20;3.40;;;30.60;99.90;;;;;;5109121;27;20248;-63
2022/05/19 10:39:32;;;;;;;6.53;3.67;;;30.50;99.90;;;;;;5107188;27;20245;-62
2022/05/19 10:42:11;;;;;;;5.43;3.60;;;30.50;99.90;;;;;;5109440;27;20321;-63
2022/05/19 10:44:57;;;;;;;5.03;3.70;;;30.30;99.90;;;;;;5106297;27;20744;-63
2022/05/19 10:47:39;;;;;;;9.00;3.70;;;30.60;99.90;;;;;;5109892;27;20229;-63
2022/05/19 10:50:25;;;;;;;4.33;3.13;;;31.20;99.90;;;;;;5108467;27;20236;-63
2022/05/19 10:53:24;;;;;;;3.90;3.50;;;31.70;99.90;;;;;;5106402;27;20244;-62
2022/05/19 10:56:05;;;;;;;7.33;4.07;;;31.70;99.70;;;;;;5108152;27;20765;-64
2022/05/19 10:58:47;;;;;;;6.53;3.23;;;32.00;99.60;;;;;;5108940;27;20249;-63
2022/05/19 11:01:29;;;;;;;5.47;3.83;;;32.10;99.90;;;;;;5107899;27;20718;-63
2022/05/19 11:04:25;;;;;;;4.53;3.30;;;32.10;99.60;;;;;;5109422;27;20245;-63
2022/05/19 11:07:12;;;;;;;4.00;3.70;;;32.60;99.20;;;;;;5108272;27;20298;-64
2022/05/19 11:09:49;;;;;;;4.80;3.40;;;33.40;99.80;;;;;;5109655;27;20387;-63
2022/05/19 11:12:28;;;;;;;5.80;3.47;;;33.60;98.70;;;;;;5105932;27;20292;-63
2022/05/19 11:15:11;;;;;;;5.90;3.70;;;34.00;97.60;;;;;;5109343;27;20237;-61
2022/05/19 11:17:56;;;;;;;4.57;3.50;;;33.90;96.60;;;;;;5110611;27;20337;-60
2022/05/19 11:20:30;;;;;;;6.93;3.13;;;34.10;96.60;;;;;;5109108;27;20242;-60
2022/05/19 11:23:05;;;;;;;5.33;3.40;;;33.90;97.10;;;;;;5111229;27;20244;-61
2022/05/19 11:28:35;;;;;;;3.97;3.53;;;34.60;96.50;;;;;;5113237;27;20234;-60
2022/05/19 11:31:12;;;;;;;5.07;3.40;;;34.50;96.10;;;;;;5111327;27;20314;-61
2022/05/19 11:33:43;;;;;;;4.13;3.00;;;34.20;95.60;;;;;;5107031;27;20692;-60
2022/05/19 11:36:18;;;;;;;5.13;3.40;;;33.90;95.90;;;;;;5108121;27;20254;-60
2022/05/19 11:38:52;;;;;;;4.03;2.80;;;33.90;96.00;;;;;;5109126;27;20268;-60
2022/05/19 11:41:25;;;;;;;4.23;3.33;;;33.90;96.20;;;;;;5108519;27;20241;-61
2022/05/19 11:44:00;;;;;;;4.80;2.97;;;34.20;96.50;;;;;;5106134;27;20708;-62
2022/05/19 11:46:34;;;;;;;3.30;3.10;;;34.40;96.10;;;;;;5112511;27;20748;-61
2022/05/19 11:55:17;;;;;;;3.57;3.27;;;34.10;95.70;;;;;;5104867;27;20310;-60
2022/05/19 11:57:58;;;;;;;5.17;3.40;;;33.80;96.60;;;;;;5108582;27;20343;-60
2022/05/19 12:00:30;;;;;;;3.10;2.63;;;33.80;96.30;;;;;;5108064;27;20696;-60
2022/05/19 12:03:02;;;;;;;5.03;3.50;;;33.80;96.90;;;;;;5105539;27;20725;-60
2022/05/19 12:05:35;;;;;;;5.13;3.73;;;33.70;97.00;;;;;;5107342;27;20291;-60
2022/05/19 12:08:14;;;;;;;5.37;3.73;;;33.70;98.10;;;;;;5109399;27;20246;-60
2022/05/19 12:10:47;;;;;;;6.97;4.33;;;33.80;97.40;;;;;;5104812;27;20697;-61
2022/05/19 12:13:24;;;;;;;4.97;4.10;;;33.80;96.70;;;;;;5103283;27;20246;-60
2022/05/19 12:15:56;;;;;;;5.73;3.60;;;33.80;97.00;;;;;;5109411;27;20312;-60
2022/05/19 12:18:44;;;;;;;4.13;3.73;;;33.60;97.60;;;;;;5106685;27;20298;-60
2022/05/19 12:21:32;;;;;;;4.63;3.90;;;33.50;96.90;;;;;;5107906;27;20256;-61
2022/05/19 12:24:07;;;;;;;5.83;3.77;;;32.90;98.40;;;;;;5104033;27;20697;-60
2022/05/19 12:26:50;;;;;;;4.67;3.80;;;32.80;98.40;;;;;;5109080;27;20889;-60
2022/05/19 12:29:31;;;;;;;4.37;3.97;;;32.80;98.90;;;;;;5106355;27;20322;-60
2022/05/19 12:32:09;;;;;;;4.53;4.10;;;32.70;97.80;;;;;;5108380;27;20313;-61
2022/05/19 12:34:44;;;;;;;6.77;4.57;;;32.40;99.00;;;;;;5104910;27;20247;-60
2022/05/19 12:37:44;;;;;;;4.83;4.43;;;32.10;99.90;;;;;;5106361;27;20258;-60
2022/05/19 12:40:50;;;;;;;4.90;4.50;;;32.00;99.90;;;;;;5109055;27;20269;-61
2022/05/19 12:43:35;;;;;;;6.67;4.60;;;31.70;99.90;;;;;;5105005;27;20266;-60
2022/05/19 12:46:10;;;;;;;8.47;4.90;;;32.00;99.70;;;;;;5104224;27;20253;-61
2022/05/19 12:48:52;;;;;;;5.17;4.47;;;32.10;99.90;;;;;;5107870;27;20566;-60
2022/05/19 12:51:33;;;;;;;5.17;4.47;;;31.80;99.90;;;;;;5106715;27;20292;-61
2022/05/19 12:54:08;;;;;;;5.60;4.50;;;31.50;99.90;;;;;;5090993;28;20234;-61
2022/05/19 12:57:15;;;;;;;7.20;4.73;;;31.30;99.90;;;;;;5107067;27;21143;-61
2022/05/19 12:59:52;;;;;;;6.50;5.10;;;31.50;99.90;;;;;;5095066;27;20229;-60
2022/05/19 13:02:34;;;;;;;5.17;4.40;;;31.70;99.90;;;;;;5106212;27;20234;-61
2022/05/19 13:05:05;;;;;;;5.97;4.10;;;31.60;99.90;;;;;;5105679;27;20313;-61
2022/05/19 13:07:40;;;;;;;6.13;4.80;;;31.30;99.90;;;;;;5107520;27;20247;-61
2022/05/19 13:10:19;;;;;;;7.43;4.60;;;31.30;99.90;;;;;;5108311;27;21300;-60
2022/05/19 13:12:52;;;;;;;5.30;4.40;;;31.20;99.90;;;;;;5105023;28;20293;-61
2022/05/19 13:15:27;;;;;;;5.90;4.40;;;31.10;99.90;;;;;;5105437;28;20312;-61
2022/05/19 13:17:58;;;;;;;6.13;4.90;;;31.10;99.90;;;;;;5106175;27;20259;-60
2022/05/19 13:20:32;;;;;;;6.20;5.30;;;31.30;99.90;;;;;;5106207;28;20285;-60
2022/05/19 13:23:18;;;;;;;6.23;4.73;;;31.40;99.90;;;;;;5104248;28;20332;-61
2022/05/19 13:25:49;;;;;;;5.23;4.30;;;31.30;99.90;;;;;;5104642;27;20249;-60
2022/05/19 13:34:06;;;;;;;5.87;4.63;;;31.20;99.90;;;;;;5103658;28;20258;-61
2022/05/19 13:36:37;;;;;;;8.20;7.40;;;31.30;99.90;;;;;;5110658;28;20240;-60
2022/05/19 13:39:08;;;;;;;10.53;8.77;;;31.10;99.90;;;;;;5108191;28;20298;-62
2022/05/19 13:41:44;;;;;;;9.07;7.97;;;30.60;99.90;;;;;;5110404;28;20243;-61